sensor_id;sensor_type;location;lat;lon;timestamp;temperature;humidity
39875;DHT22;25547;52.530;13.194;2023-06-14T00:01:06;16.50;77.20
39875;DHT22;25547;52.530;13.194;2023-06-14T00:03:31;16.40;77.70
39875;DHT22;25547;52.530;13.194;2023-06-14T00:05:58;16.40;78.00
39875;DHT22;25547;52.530;13.194;2023-06-14T00:08:23;16.30;78.30
39875;DHT22;25547;52.530;13.194;2023-06-14T00:10:51;16.20;78.60
39875;DHT22;25547;52.530;13.194;2023-06-14T00:13:16;16.20;78.80
39875;DHT22;25547;52.530;13.194;2023-06-14T00:15:42;16.30;79.10
39875;DHT22;25547;52.530;13.194;2023-06-14T00:18:08;16.30;78.90
39875;DHT22;25547;52.530;13.194;2023-06-14T00:20:37;16.20;79.20
39875;DHT22;25547;52.530;13.194;2023-06-14T00:23:02;16.00;79.90
39875;DHT22;25547;52.530;13.194;2023-06-14T00:25:28;16.00;80.20
39875;DHT22;25547;52.530;13.194;2023-06-14T00:27:55;15.90;80.90
39875;DHT22;25547;52.530;13.194;2023-06-14T00:30:21;15.80;81.80
39875;DHT22;25547;52.530;13.194;2023-06-14T00:32:47;15.80;82.50
39875;DHT22;25547;52.530;13.194;2023-06-14T00:35:13;15.70;82.90
39875;DHT22;25547;52.530;13.194;2023-06-14T00:37:39;15.60;83.80
39875;DHT22;25547;52.530;13.194;2023-06-14T00:40:05;15.60;83.90
39875;DHT22;25547;52.530;13.194;2023-06-14T00:42:34;15.60;84.70
39875;DHT22;25547;52.530;13.194;2023-06-14T00:45:00;15.60;85.10
39875;DHT22;25547;52.530;13.194;2023-06-14T00:47:28;15.50;85.70
39875;DHT22;25547;52.530;13.194;2023-06-14T00:49:57;15.50;86.40
39875;DHT22;25547;52.530;13.194;2023-06-14T00:52:24;15.60;86.40
39875;DHT22;25547;52.530;13.194;2023-06-14T00:54:50;15.80;86.60
39875;DHT22;25547;52.530;13.194;2023-06-14T00:57:21;15.80;85.60
39875;DHT22;25547;52.530;13.194;2023-06-14T00:59:49;15.80;85.70
39875;DHT22;25547;52.530;13.194;2023-06-14T01:02:15;15.80;85.70
39875;DHT22;25547;52.530;13.194;2023-06-14T01:04:44;15.80;86.00
39875;DHT22;25547;52.530;13.194;2023-06-14T01:07:27;15.90;86.20
39875;DHT22;25547;52.530;13.194;2023-06-14T01:15:20;15.90;87.10
39875;DHT22;25547;52.530;13.194;2023-06-14T01:17:49;15.70;87.80
39875;DHT22;25547;52.530;13.194;2023-06-14T01:20:16;15.80;88.20
39875;DHT22;25547;52.530;13.194;2023-06-14T01:22:55;15.80;88.10
39875;DHT22;25547;52.530;13.194;2023-06-14T01:25:21;15.80;88.10
39875;DHT22;25547;52.530;13.194;2023-06-14T01:30:20;15.50;89.70
39875;DHT22;25547;52.530;13.194;2023-06-14T01:32:47;15.50;90.10
39875;DHT22;25547;52.530;13.194;2023-06-14T01:35:13;15.50;90.40
39875;DHT22;25547;52.530;13.194;2023-06-14T01:37:43;15.70;90.30
39875;DHT22;25547;52.530;13.194;2023-06-14T01:40:10;15.70;90.30
39875;DHT22;25547;52.530;13.194;2023-06-14T01:42:39;15.80;90.30
39875;DHT22;25547;52.530;13.194;2023-06-14T01:45:06;15.70;90.50
39875;DHT22;25547;52.530;13.194;2023-06-14T01:47:32;15.70;90.50
39875;DHT22;25547;52.530;13.194;2023-06-14T01:49:59;15.50;91.10
39875;DHT22;25547;52.530;13.194;2023-06-14T01:52:25;15.60;91.20
39875;DHT22;25547;52.530;13.194;2023-06-14T01:54:51;15.60;91.00
39875;DHT22;25547;52.530;13.194;2023-06-14T01:57:16;15.70;91.10
39875;DHT22;25547;52.530;13.194;2023-06-14T01:59:42;15.70;91.10
39875;DHT22;25547;52.530;13.194;2023-06-14T02:02:08;15.70;91.20
39875;DHT22;25547;52.530;13.194;2023-06-14T02:04:34;15.70;91.30
39875;DHT22;25547;52.530;13.194;2023-06-14T02:07:00;15.70;91.30
39875;DHT22;25547;52.530;13.194;2023-06-14T02:09:26;15.70;91.40
39875;DHT22;25547;52.530;13.194;2023-06-14T02:11:52;15.60;91.50
39875;DHT22;25547;52.530;13.194;2023-06-14T02:14:23;15.70;91.60
39875;DHT22;25547;52.530;13.194;2023-06-14T02:16:51;15.70;91.40
39875;DHT22;25547;52.530;13.194;2023-06-14T02:19:17;15.60;91.50
39875;DHT22;25547;52.530;13.194;2023-06-14T02:21:43;15.60;91.70
39875;DHT22;25547;52.530;13.194;2023-06-14T02:24:09;15.50;91.90
39875;DHT22;25547;52.530;13.194;2023-06-14T02:26:35;15.50;92.00
39875;DHT22;25547;52.530;13.194;2023-06-14T02:29:03;15.50;92.10
39875;DHT22;25547;52.530;13.194;2023-06-14T02:31:31;15.40;92.30
39875;DHT22;25547;52.530;13.194;2023-06-14T02:33:59;15.30;92.50
39875;DHT22;25547;52.530;13.194;2023-06-14T02:36:25;15.10;93.30
39875;DHT22;25547;52.530;13.194;2023-06-14T02:38:51;15.10;93.60
39875;DHT22;25547;52.530;13.194;2023-06-14T02:41:19;15.20;93.60
39875;DHT22;25547;52.530;13.194;2023-06-14T02:43:47;15.20;93.60
39875;DHT22;25547;52.530;13.194;2023-06-14T02:46:13;15.30;93.50
39875;DHT22;25547;52.530;13.194;2023-06-14T02:48:40;15.20;93.40
39875;DHT22;25547;52.530;13.194;2023-06-14T02:51:06;15.20;93.60
39875;DHT22;25547;52.530;13.194;2023-06-14T02:53:33;15.10;93.70
39875;DHT22;25547;52.530;13.194;2023-06-14T02:55:59;15.10;94.20
39875;DHT22;25547;52.530;13.194;2023-06-14T02:58:26;15.00;94.40
39875;DHT22;25547;52.530;13.194;2023-06-14T03:00:54;15.00;94.60
39875;DHT22;25547;52.530;13.194;2023-06-14T03:03:20;15.00;94.70
39875;DHT22;25547;52.530;13.194;2023-06-14T03:05:48;15.10;94.80
39875;DHT22;25547;52.530;13.194;2023-06-14T03:08:17;15.10;94.70
39875;DHT22;25547;52.530;13.194;2023-06-14T03:10:46;15.10;94.90
39875;DHT22;25547;52.530;13.194;2023-06-14T03:13:15;15.10;94.90
39875;DHT22;25547;52.530;13.194;2023-06-14T03:15:44;15.20;94.80
39875;DHT22;25547;52.530;13.194;2023-06-14T03:18:10;15.10;94.80
39875;DHT22;25547;52.530;13.194;2023-06-14T03:20:39;15.10;95.00
39875;DHT22;25547;52.530;13.194;2023-06-14T03:23:06;15.10;95.20
39875;DHT22;25547;52.530;13.194;2023-06-14T03:25:32;15.10;95.00
39875;DHT22;25547;52.530;13.194;2023-06-14T03:28:04;15.10;95.00
39875;DHT22;25547;52.530;13.194;2023-06-14T03:30:32;15.10;95.20
39875;DHT22;25547;52.530;13.194;2023-06-14T03:32:58;15.10;95.40
39875;DHT22;25547;52.530;13.194;2023-06-14T03:35:27;15.00;95.70
39875;DHT22;25547;52.530;13.194;2023-06-14T03:37:53;15.10;96.10
39875;DHT22;25547;52.530;13.194;2023-06-14T03:40:19;15.00;96.10
39875;DHT22;25547;52.530;13.194;2023-06-14T03:42:49;15.10;96.30
39875;DHT22;25547;52.530;13.194;2023-06-14T03:45:15;15.20;96.30
39875;DHT22;25547;52.530;13.194;2023-06-14T03:47:43;15.10;96.30
39875;DHT22;25547;52.530;13.194;2023-06-14T03:50:12;15.20;96.30
39875;DHT22;25547;52.530;13.194;2023-06-14T03:52:37;15.20;96.40
39875;DHT22;25547;52.530;13.194;2023-06-14T03:55:04;15.10;96.50
39875;DHT22;25547;52.530;13.194;2023-06-14T03:57:30;15.20;96.60
39875;DHT22;25547;52.530;13.194;2023-06-14T03:59:58;15.20;96.60
39875;DHT22;25547;52.530;13.194;2023-06-14T04:02:24;15.20;96.60
39875;DHT22;25547;52.530;13.194;2023-06-14T04:04:50;15.10;97.10
39875;DHT22;25547;52.530;13.194;2023-06-14T04:07:17;15.20;97.10
39875;DHT22;25547;52.530;13.194;2023-06-14T04:09:46;15.30;96.70
39875;DHT22;25547;52.530;13.194;2023-06-14T04:12:13;15.40;96.40
39875;DHT22;25547;52.530;13.194;2023-06-14T04:14:40;15.40;96.10
39875;DHT22;25547;52.530;13.194;2023-06-14T04:17:06;15.40;96.30
39875;DHT22;25547;52.530;13.194;2023-06-14T04:19:32;15.50;96.00
39875;DHT22;25547;52.530;13.194;2023-06-14T04:22:01;15.50;96.00
39875;DHT22;25547;52.530;13.194;2023-06-14T04:24:29;15.50;96.00
39875;DHT22;25547;52.530;13.194;2023-06-14T04:26:58;15.60;96.10
39875;DHT22;25547;52.530;13.194;2023-06-14T04:29:25;15.50;96.10
39875;DHT22;25547;52.530;13.194;2023-06-14T04:31:55;15.60;96.10
39875;DHT22;25547;52.530;13.194;2023-06-14T04:34:25;15.70;95.80
39875;DHT22;25547;52.530;13.194;2023-06-14T04:36:55;15.70;95.90
39875;DHT22;25547;52.530;13.194;2023-06-14T04:39:25;15.80;95.90
39875;DHT22;25547;52.530;13.194;2023-06-14T04:41:51;15.80;95.60
39875;DHT22;25547;52.530;13.194;2023-06-14T04:44:19;15.70;95.70
39875;DHT22;25547;52.530;13.194;2023-06-14T04:46:47;15.80;95.60
39875;DHT22;25547;52.530;13.194;2023-06-14T04:49:17;15.80;95.60
39875;DHT22;25547;52.530;13.194;2023-06-14T04:51:46;15.80;95.60
39875;DHT22;25547;52.530;13.194;2023-06-14T04:54:15;15.70;95.90
39875;DHT22;25547;52.530;13.194;2023-06-14T04:56:41;15.80;95.80
39875;DHT22;25547;52.530;13.194;2023-06-14T04:59:12;15.90;95.60
39875;DHT22;25547;52.530;13.194;2023-06-14T05:01:40;15.80;95.60
39875;DHT22;25547;52.530;13.194;2023-06-14T05:04:06;15.90;95.50
39875;DHT22;25547;52.530;13.194;2023-06-14T05:06:34;16.00;95.30
39875;DHT22;25547;52.530;13.194;2023-06-14T05:08:59;16.10;95.20
39875;DHT22;25547;52.530;13.194;2023-06-14T05:11:25;16.00;95.20
39875;DHT22;25547;52.530;13.194;2023-06-14T05:13:52;16.20;95.00
39875;DHT22;25547;52.530;13.194;2023-06-14T05:16:17;16.30;94.80
39875;DHT22;25547;52.530;13.194;2023-06-14T05:18:45;16.30;94.50
39875;DHT22;25547;52.530;13.194;2023-06-14T05:21:15;16.20;94.50
39875;DHT22;25547;52.530;13.194;2023-06-14T05:23:44;16.30;94.40
39875;DHT22;25547;52.530;13.194;2023-06-14T05:26:10;16.40;94.20
39875;DHT22;25547;52.530;13.194;2023-06-14T05:28:36;16.50;94.20
39875;DHT22;25547;52.530;13.194;2023-06-14T05:31:02;16.60;94.00
39875;DHT22;25547;52.530;13.194;2023-06-14T05:33:28;16.50;93.80
39875;DHT22;25547;52.530;13.194;2023-06-14T05:35:56;16.70;93.70
39875;DHT22;25547;52.530;13.194;2023-06-14T05:38:22;17.00;93.40
39875;DHT22;25547;52.530;13.194;2023-06-14T05:40:50;17.00;93.10
39875;DHT22;25547;52.530;13.194;2023-06-14T05:43:16;17.20;92.90
39875;DHT22;25547;52.530;13.194;2023-06-14T05:45:44;17.20;92.90
39875;DHT22;25547;52.530;13.194;2023-06-14T05:48:10;17.20;93.00
39875;DHT22;25547;52.530;13.194;2023-06-14T05:50:35;17.30;92.80
39875;DHT22;25547;52.530;13.194;2023-06-14T05:53:01;17.50;92.70
39875;DHT22;25547;52.530;13.194;2023-06-14T05:55:26;17.50;92.40
39875;DHT22;25547;52.530;13.194;2023-06-14T05:57:52;17.60;92.30
39875;DHT22;25547;52.530;13.194;2023-06-14T06:00:18;17.50;92.10
39875;DHT22;25547;52.530;13.194;2023-06-14T06:02:45;17.30;92.20
39875;DHT22;25547;52.530;13.194;2023-06-14T06:05:13;17.20;92.20
39875;DHT22;25547;52.530;13.194;2023-06-14T06:07:39;17.20;92.30
39875;DHT22;25547;52.530;13.194;2023-06-14T06:10:11;17.10;92.60
39875;DHT22;25547;52.530;13.194;2023-06-14T06:12:37;17.10;92.80
39875;DHT22;25547;52.530;13.194;2023-06-14T06:15:05;17.10;92.80
39875;DHT22;25547;52.530;13.194;2023-06-14T06:17:39;17.20;92.50
39875;DHT22;25547;52.530;13.194;2023-06-14T06:20:05;17.20;92.50
39875;DHT22;25547;52.530;13.194;2023-06-14T06:22:36;17.50;92.10
39875;DHT22;25547;52.530;13.194;2023-06-14T06:25:05;17.30;92.40
39875;DHT22;25547;52.530;13.194;2023-06-14T06:27:31;17.10;93.00
39875;DHT22;25547;52.530;13.194;2023-06-14T06:29:57;17.00;93.20
39875;DHT22;25547;52.530;13.194;2023-06-14T06:32:23;16.90;93.50
39875;DHT22;25547;52.530;13.194;2023-06-14T06:34:49;17.00;93.60
39875;DHT22;25547;52.530;13.194;2023-06-14T06:37:18;17.20;93.40
39875;DHT22;25547;52.530;13.194;2023-06-14T06:39:43;17.10;93.30
39875;DHT22;25547;52.530;13.194;2023-06-14T06:42:09;17.20;93.40
39875;DHT22;25547;52.530;13.194;2023-06-14T06:44:37;17.20;93.60
39875;DHT22;25547;52.530;13.194;2023-06-14T06:47:02;17.10;93.40
39875;DHT22;25547;52.530;13.194;2023-06-14T06:49:28;17.00;93.60
39875;DHT22;25547;52.530;13.194;2023-06-14T06:52:05;17.00;93.80
39875;DHT22;25547;52.530;13.194;2023-06-14T06:54:33;17.10;94.20
39875;DHT22;25547;52.530;13.194;2023-06-14T06:56:59;17.10;93.60
39875;DHT22;25547;52.530;13.194;2023-06-14T06:59:28;17.20;93.50
39875;DHT22;25547;52.530;13.194;2023-06-14T07:01:56;17.20;93.60
39875;DHT22;25547;52.530;13.194;2023-06-14T07:04:22;17.30;93.60
39875;DHT22;25547;52.530;13.194;2023-06-14T07:06:47;17.30;93.60
39875;DHT22;25547;52.530;13.194;2023-06-14T07:09:13;17.30;93.10
39875;DHT22;25547;52.530;13.194;2023-06-14T07:11:43;17.30;92.90
39875;DHT22;25547;52.530;13.194;2023-06-14T07:14:09;17.50;92.90
39875;DHT22;25547;52.530;13.194;2023-06-14T07:16:34;17.60;92.60
39875;DHT22;25547;52.530;13.194;2023-06-14T07:19:03;17.60;92.60
39875;DHT22;25547;52.530;13.194;2023-06-14T07:21:29;17.60;92.70
39875;DHT22;25547;52.530;13.194;2023-06-14T07:23:55;17.70;92.80
39875;DHT22;25547;52.530;13.194;2023-06-14T07:26:21;17.60;92.60
39875;DHT22;25547;52.530;13.194;2023-06-14T07:28:47;17.60;92.60
39875;DHT22;25547;52.530;13.194;2023-06-14T07:31:14;17.80;92.70
39875;DHT22;25547;52.530;13.194;2023-06-14T07:33:41;17.80;92.50
39875;DHT22;25547;52.530;13.194;2023-06-14T07:36:09;17.80;92.40
39875;DHT22;25547;52.530;13.194;2023-06-14T07:38:34;18.00;91.90
39875;DHT22;25547;52.530;13.194;2023-06-14T07:41:02;18.00;91.50
39875;DHT22;25547;52.530;13.194;2023-06-14T07:43:27;17.90;91.60
39875;DHT22;25547;52.530;13.194;2023-06-14T07:45:55;18.00;91.80
39875;DHT22;25547;52.530;13.194;2023-06-14T07:48:23;18.20;91.50
39875;DHT22;25547;52.530;13.194;2023-06-14T07:50:49;18.50;91.10
39875;DHT22;25547;52.530;13.194;2023-06-14T07:53:14;19.30;88.80
39875;DHT22;25547;52.530;13.194;2023-06-14T07:55:40;20.00;86.30
39875;DHT22;25547;52.530;13.194;2023-06-14T07:58:09;21.00;81.90
39875;DHT22;25547;52.530;13.194;2023-06-14T08:00:35;23.90;71.60
39875;DHT22;25547;52.530;13.194;2023-06-14T08:03:00;27.50;62.90
39875;DHT22;25547;52.530;13.194;2023-06-14T08:05:29;26.00;61.60
39875;DHT22;25547;52.530;13.194;2023-06-14T08:07:55;26.80;58.10
39875;DHT22;25547;52.530;13.194;2023-06-14T08:10:22;28.20;57.10
39875;DHT22;25547;52.530;13.194;2023-06-14T08:12:50;32.10;50.20
39875;DHT22;25547;52.530;13.194;2023-06-14T08:15:16;32.70;45.60
39875;DHT22;25547;52.530;13.194;2023-06-14T08:17:43;31.60;45.60
39875;DHT22;25547;52.530;13.194;2023-06-14T08:20:09;30.90;45.70
39875;DHT22;25547;52.530;13.194;2023-06-14T08:22:36;32.60;45.60
39875;DHT22;25547;52.530;13.194;2023-06-14T08:25:02;34.30;43.90
39875;DHT22;25547;52.530;13.194;2023-06-14T08:27:33;33.10;42.70
39875;DHT22;25547;52.530;13.194;2023-06-14T08:29:58;32.00;44.40
39875;DHT22;25547;52.530;13.194;2023-06-14T08:32:24;30.80;45.30
39875;DHT22;25547;52.530;13.194;2023-06-14T08:34:50;28.90;48.50
39875;DHT22;25547;52.530;13.194;2023-06-14T08:37:18;27.50;51.10
39875;DHT22;25547;52.530;13.194;2023-06-14T08:39:43;26.70;53.20
39875;DHT22;25547;52.530;13.194;2023-06-14T08:42:10;25.90;54.60
39875;DHT22;25547;52.530;13.194;2023-06-14T08:44:38;25.60;55.30
39875;DHT22;25547;52.530;13.194;2023-06-14T08:47:06;24.70;56.50
39875;DHT22;25547;52.530;13.194;2023-06-14T08:49:32;24.40;57.70
39875;DHT22;25547;52.530;13.194;2023-06-14T08:52:01;24.00;58.40
39875;DHT22;25547;52.530;13.194;2023-06-14T08:54:31;23.90;58.90
39875;DHT22;25547;52.530;13.194;2023-06-14T08:56:57;24.10;58.90
39875;DHT22;25547;52.530;13.194;2023-06-14T08:59:26;24.10;58.40
39875;DHT22;25547;52.530;13.194;2023-06-14T09:01:56;24.10;58.20
39875;DHT22;25547;52.530;13.194;2023-06-14T09:04:23;24.00;58.20
39875;DHT22;25547;52.530;13.194;2023-06-14T09:06:55;23.50;59.20
39875;DHT22;25547;52.530;13.194;2023-06-14T09:09:21;23.10;61.10
39875;DHT22;25547;52.530;13.194;2023-06-14T09:11:51;22.90;60.90
39875;DHT22;25547;52.530;13.194;2023-06-14T09:14:19;22.80;60.80
39875;DHT22;25547;52.530;13.194;2023-06-14T09:16:45;22.50;61.40
39875;DHT22;25547;52.530;13.194;2023-06-14T09:19:24;22.40;61.90
39875;DHT22;25547;52.530;13.194;2023-06-14T09:21:52;22.00;62.70
39875;DHT22;25547;52.530;13.194;2023-06-14T09:24:21;22.10;63.40
39875;DHT22;25547;52.530;13.194;2023-06-14T09:26:51;22.00;63.00
39875;DHT22;25547;52.530;13.194;2023-06-14T09:29:17;22.10;63.50
39875;DHT22;25547;52.530;13.194;2023-06-14T09:31:45;22.10;63.40
39875;DHT22;25547;52.530;13.194;2023-06-14T09:34:11;22.00;63.40
39875;DHT22;25547;52.530;13.194;2023-06-14T09:36:39;22.30;63.60
39875;DHT22;25547;52.530;13.194;2023-06-14T09:39:06;22.50;64.00
39875;DHT22;25547;52.530;13.194;2023-06-14T09:41:40;22.50;62.70
39875;DHT22;25547;52.530;13.194;2023-06-14T09:44:10;22.40;62.60
39875;DHT22;25547;52.530;13.194;2023-06-14T09:46:39;22.20;63.40
39875;DHT22;25547;52.530;13.194;2023-06-14T09:49:08;22.30;63.20
39875;DHT22;25547;52.530;13.194;2023-06-14T09:51:35;22.30;63.50
39875;DHT22;25547;52.530;13.194;2023-06-14T09:54:06;22.40;63.60
39875;DHT22;25547;52.530;13.194;2023-06-14T09:56:35;22.40;63.30
39875;DHT22;25547;52.530;13.194;2023-06-14T09:59:04;22.60;63.20
39875;DHT22;25547;52.530;13.194;2023-06-14T10:01:32;22.50;62.00
39875;DHT22;25547;52.530;13.194;2023-06-14T10:04:04;22.40;61.10
39875;DHT22;25547;52.530;13.194;2023-06-14T10:06:37;22.30;61.50
39875;DHT22;25547;52.530;13.194;2023-06-14T10:09:08;22.30;61.20
39875;DHT22;25547;52.530;13.194;2023-06-14T10:11:35;22.10;61.30
39875;DHT22;25547;52.530;13.194;2023-06-14T10:14:02;21.80;61.80
39875;DHT22;25547;52.530;13.194;2023-06-14T10:16:34;21.90;62.50
39875;DHT22;25547;52.530;13.194;2023-06-14T10:24:32;21.80;62.70
39875;DHT22;25547;52.530;13.194;2023-06-14T10:27:01;21.80;62.40
39875;DHT22;25547;52.530;13.194;2023-06-14T10:29:28;21.80;63.20
39875;DHT22;25547;52.530;13.194;2023-06-14T10:31:58;21.80;63.00
39875;DHT22;25547;52.530;13.194;2023-06-14T10:34:29;21.60;63.20
39875;DHT22;25547;52.530;13.194;2023-06-14T10:37:07;21.40;63.70
39875;DHT22;25547;52.530;13.194;2023-06-14T10:39:43;21.30;63.70
39875;DHT22;25547;52.530;13.194;2023-06-14T10:42:15;21.50;64.20
39875;DHT22;25547;52.530;13.194;2023-06-14T10:44:53;21.80;62.70
39875;DHT22;25547;52.530;13.194;2023-06-14T10:47:30;21.90;61.50
39875;DHT22;25547;52.530;13.194;2023-06-14T10:50:10;22.10;61.10
39875;DHT22;25547;52.530;13.194;2023-06-14T10:52:45;22.30;60.50
39875;DHT22;25547;52.530;13.194;2023-06-14T10:55:17;22.20;59.40
39875;DHT22;25547;52.530;13.194;2023-06-14T10:57:52;22.20;59.40
39875;DHT22;25547;52.530;13.194;2023-06-14T11:00:20;21.80;60.10
39875;DHT22;25547;52.530;13.194;2023-06-14T11:05:24;21.50;61.60
39875;DHT22;25547;52.530;13.194;2023-06-14T11:10:49;21.30;61.20
39875;DHT22;25547;52.530;13.194;2023-06-14T11:13:18;21.50;62.20
39875;DHT22;25547;52.530;13.194;2023-06-14T11:15:45;21.70;61.80
39875;DHT22;25547;52.530;13.194;2023-06-14T11:18:15;21.90;61.50
39875;DHT22;25547;52.530;13.194;2023-06-14T11:20:46;21.90;60.10
39875;DHT22;25547;52.530;13.194;2023-06-14T11:23:12;21.80;60.30
39875;DHT22;25547;52.530;13.194;2023-06-14T11:25:38;21.80;60.30
39875;DHT22;25547;52.530;13.194;2023-06-14T11:28:06;21.90;60.50
39875;DHT22;25547;52.530;13.194;2023-06-14T11:30:31;21.80;60.90
39875;DHT22;25547;52.530;13.194;2023-06-14T11:33:00;21.80;60.70
39875;DHT22;25547;52.530;13.194;2023-06-14T11:35:26;21.90;60.80
39875;DHT22;25547;52.530;13.194;2023-06-14T11:37:55;22.00;59.70
39875;DHT22;25547;52.530;13.194;2023-06-14T11:40:24;22.00;60.50
39875;DHT22;25547;52.530;13.194;2023-06-14T11:43:01;21.90;59.70
39875;DHT22;25547;52.530;13.194;2023-06-14T11:45:28;22.10;59.00
39875;DHT22;25547;52.530;13.194;2023-06-14T11:47:59;22.20;58.90
39875;DHT22;25547;52.530;13.194;2023-06-14T11:50:25;22.30;59.30
39875;DHT22;25547;52.530;13.194;2023-06-14T11:52:58;22.30;59.40
39875;DHT22;25547;52.530;13.194;2023-06-14T11:55:40;22.30;59.00
39875;DHT22;25547;52.530;13.194;2023-06-14T11:58:10;22.50;57.00
39875;DHT22;25547;52.530;13.194;2023-06-14T12:00:36;22.50;56.50
39875;DHT22;25547;52.530;13.194;2023-06-14T12:03:04;22.60;56.50
39875;DHT22;25547;52.530;13.194;2023-06-14T12:05:33;22.70;56.90
39875;DHT22;25547;52.530;13.194;2023-06-14T12:08:03;22.50;56.40
39875;DHT22;25547;52.530;13.194;2023-06-14T12:10:45;22.60;55.10
39875;DHT22;25547;52.530;13.194;2023-06-14T12:13:10;22.70;55.30
39875;DHT22;25547;52.530;13.194;2023-06-14T12:15:36;22.70;54.40
39875;DHT22;25547;52.530;13.194;2023-06-14T12:18:05;22.60;54.10
39875;DHT22;25547;52.530;13.194;2023-06-14T12:20:33;22.50;54.50
39875;DHT22;25547;52.530;13.194;2023-06-14T12:23:03;22.50;55.10
39875;DHT22;25547;52.530;13.194;2023-06-14T12:25:35;22.50;55.40
39875;DHT22;25547;52.530;13.194;2023-06-14T12:28:06;22.40;55.00
39875;DHT22;25547;52.530;13.194;2023-06-14T12:30:40;22.30;54.20
39875;DHT22;25547;52.530;13.194;2023-06-14T12:33:08;22.20;53.60
39875;DHT22;25547;52.530;13.194;2023-06-14T12:35:36;22.10;54.00
39875;DHT22;25547;52.530;13.194;2023-06-14T12:38:02;21.90;54.00
39875;DHT22;25547;52.530;13.194;2023-06-14T12:40:29;21.80;54.20
39875;DHT22;25547;52.530;13.194;2023-06-14T12:42:54;21.80;54.50
39875;DHT22;25547;52.530;13.194;2023-06-14T12:45:20;21.90;54.70
39875;DHT22;25547;52.530;13.194;2023-06-14T12:47:45;22.00;54.40
39875;DHT22;25547;52.530;13.194;2023-06-14T12:50:14;22.00;52.60
39875;DHT22;25547;52.530;13.194;2023-06-14T12:52:42;22.10;53.00
39875;DHT22;25547;52.530;13.194;2023-06-14T12:55:07;22.10;53.00
39875;DHT22;25547;52.530;13.194;2023-06-14T12:57:33;22.10;53.00
39875;DHT22;25547;52.530;13.194;2023-06-14T13:00:04;22.20;51.80
39875;DHT22;25547;52.530;13.194;2023-06-14T13:02:33;22.30;52.30
39875;DHT22;25547;52.530;13.194;2023-06-14T13:04:58;22.40;52.80
39875;DHT22;25547;52.530;13.194;2023-06-14T13:07:25;22.40;52.80
39875;DHT22;25547;52.530;13.194;2023-06-14T13:09:51;22.40;52.40
39875;DHT22;25547;52.530;13.194;2023-06-14T13:12:16;22.60;52.30
39875;DHT22;25547;52.530;13.194;2023-06-14T13:14:42;22.70;52.00
39875;DHT22;25547;52.530;13.194;2023-06-14T13:17:09;22.80;51.70
39875;DHT22;25547;52.530;13.194;2023-06-14T13:19:37;22.80;51.70
39875;DHT22;25547;52.530;13.194;2023-06-14T13:22:05;23.00;51.70
39875;DHT22;25547;52.530;13.194;2023-06-14T13:24:31;23.20;50.80
39875;DHT22;25547;52.530;13.194;2023-06-14T13:26:59;23.20;51.00
39875;DHT22;25547;52.530;13.194;2023-06-14T13:29:25;23.20;50.90
39875;DHT22;25547;52.530;13.194;2023-06-14T13:31:52;23.10;51.00
39875;DHT22;25547;52.530;13.194;2023-06-14T13:34:18;23.00;51.50
39875;DHT22;25547;52.530;13.194;2023-06-14T13:36:46;23.00;51.00
39875;DHT22;25547;52.530;13.194;2023-06-14T13:39:12;23.00;49.60
39875;DHT22;25547;52.530;13.194;2023-06-14T13:41:41;23.20;49.90
39875;DHT22;25547;52.530;13.194;2023-06-14T13:44:06;23.10;50.10
39875;DHT22;25547;52.530;13.194;2023-06-14T13:46:36;23.20;49.00
39875;DHT22;25547;52.530;13.194;2023-06-14T13:49:02;23.20;49.40
39875;DHT22;25547;52.530;13.194;2023-06-14T13:51:28;23.10;49.20
39875;DHT22;25547;52.530;13.194;2023-06-14T13:53:54;23.10;49.70
39875;DHT22;25547;52.530;13.194;2023-06-14T13:56:21;23.10;49.90
39875;DHT22;25547;52.530;13.194;2023-06-14T13:58:50;23.00;49.80
39875;DHT22;25547;52.530;13.194;2023-06-14T14:01:17;22.90;49.60
39875;DHT22;25547;52.530;13.194;2023-06-14T14:03:47;23.00;49.60
39875;DHT22;25547;52.530;13.194;2023-06-14T14:06:13;23.00;49.60
39875;DHT22;25547;52.530;13.194;2023-06-14T14:08:39;23.00;48.80
39875;DHT22;25547;52.530;13.194;2023-06-14T14:11:07;23.00;48.50
39875;DHT22;25547;52.530;13.194;2023-06-14T14:13:36;23.20;47.80
39875;DHT22;25547;52.530;13.194;2023-06-14T14:16:04;23.30;47.10
39875;DHT22;25547;52.530;13.194;2023-06-14T14:18:30;23.30;47.50
39875;DHT22;25547;52.530;13.194;2023-06-14T14:20:56;23.30;48.00
39875;DHT22;25547;52.530;13.194;2023-06-14T14:23:22;23.10;50.10
39875;DHT22;25547;52.530;13.194;2023-06-14T14:25:50;22.90;51.30
39875;DHT22;25547;52.530;13.194;2023-06-14T14:28:15;22.70;52.30
39875;DHT22;25547;52.530;13.194;2023-06-14T14:30:46;22.60;52.60
39875;DHT22;25547;52.530;13.194;2023-06-14T14:33:14;22.60;52.80
39875;DHT22;25547;52.530;13.194;2023-06-14T14:35:45;22.50;53.00
39875;DHT22;25547;52.530;13.194;2023-06-14T14:38:14;22.50;53.20
39875;DHT22;25547;52.530;13.194;2023-06-14T14:40:44;22.50;53.30
39875;DHT22;25547;52.530;13.194;2023-06-14T14:43:10;22.50;53.50
39875;DHT22;25547;52.530;13.194;2023-06-14T14:45:36;22.60;53.50
39875;DHT22;25547;52.530;13.194;2023-06-14T14:48:02;22.50;53.50
39875;DHT22;25547;52.530;13.194;2023-06-14T14:50:28;22.50;53.60
39875;DHT22;25547;52.530;13.194;2023-06-14T14:52:54;22.40;53.70
39875;DHT22;25547;52.530;13.194;2023-06-14T14:55:20;22.40;54.10
39875;DHT22;25547;52.530;13.194;2023-06-14T14:57:46;22.40;53.80
39875;DHT22;25547;52.530;13.194;2023-06-14T15:00:15;22.50;53.80
39875;DHT22;25547;52.530;13.194;2023-06-14T15:02:43;22.50;54.10
39875;DHT22;25547;52.530;13.194;2023-06-14T15:05:11;22.50;53.60
39875;DHT22;25547;52.530;13.194;2023-06-14T15:07:42;22.50;53.80
39875;DHT22;25547;52.530;13.194;2023-06-14T15:10:08;22.50;53.70
39875;DHT22;25547;52.530;13.194;2023-06-14T15:12:37;22.40;53.70
39875;DHT22;25547;52.530;13.194;2023-06-14T15:15:03;22.40;54.20
39875;DHT22;25547;52.530;13.194;2023-06-14T15:17:31;22.40;54.40
39875;DHT22;25547;52.530;13.194;2023-06-14T15:19:59;22.40;54.70
39875;DHT22;25547;52.530;13.194;2023-06-14T15:22:26;22.40;54.60
39875;DHT22;25547;52.530;13.194;2023-06-14T15:24:54;22.40;54.50
39875;DHT22;25547;52.530;13.194;2023-06-14T15:27:22;22.30;54.50
39875;DHT22;25547;52.530;13.194;2023-06-14T15:29:48;22.30;54.60
39875;DHT22;25547;52.530;13.194;2023-06-14T15:32:13;22.30;54.30
39875;DHT22;25547;52.530;13.194;2023-06-14T15:34:39;22.20;54.70
39875;DHT22;25547;52.530;13.194;2023-06-14T15:37:06;22.20;54.80